createdAt,value
2022-12-15T00:02:13.229Z,83.59
2022-12-15T00:04:58.329Z,83.50
2022-12-15T00:07:43.145Z,83.20
2022-12-15T00:10:28.211Z,83.38
2022-12-15T00:13:13.372Z,83.33
2022-12-15T00:15:58.455Z,83.20
2022-12-15T00:18:43.522Z,83.22
2022-12-15T00:21:28.196Z,83.17
2022-12-15T00:24:13.290Z,82.86
2022-12-15T00:26:58.321Z,83.16
2022-12-15T00:29:43.438Z,83.16
2022-12-15T00:32:28.358Z,83.05
2022-12-15T00:35:13.396Z,83.15
2022-12-15T00:37:58.393Z,83.47
2022-12-15T00:40:24.766Z,83.54
2022-12-15T00:42:51.200Z,83.32
2022-12-15T00:45:17.574Z,83.43
2022-12-15T00:47:44.031Z,83.55
2022-12-15T00:50:28.878Z,83.53
2022-12-15T00:53:13.833Z,83.76
2022-12-15T00:55:58.912Z,84.02
2022-12-15T00:58:43.959Z,84.22
2022-12-15T01:01:29.313Z,84.42
2022-12-15T01:04:14.523Z,84.17
2022-12-15T01:06:59.678Z,84.00
2022-12-15T01:09:45.132Z,84.45
2022-12-15T01:12:30.268Z,84.22
2022-12-15T01:15:15.331Z,84.16
2022-12-15T01:18:00.321Z,83.91
2022-12-15T01:20:26.718Z,83.68
2022-12-15T01:22:55.895Z,83.79
2022-12-15T01:25:24.589Z,83.94
2022-12-15T01:27:51.671Z,84.14
2022-12-15T01:30:21.767Z,83.96
2022-12-15T01:32:48.276Z,83.77
2022-12-15T01:35:14.982Z,83.59
2022-12-15T01:37:41.381Z,83.17
2022-12-15T01:40:30.170Z,83.61
2022-12-15T01:42:56.673Z,83.61
2022-12-15T01:45:46.110Z,83.85
2022-12-15T01:48:17.660Z,83.77
2022-12-15T01:50:56.926Z,83.68
2022-12-15T01:53:24.063Z,83.65
2022-12-15T01:55:50.782Z,83.46
2022-12-15T01:58:18.743Z,83.03
2022-12-15T02:00:45.196Z,83.02
2022-12-15T02:03:12.195Z,83.09
2022-12-15T02:05:41.317Z,82.33
2022-12-15T02:08:08.922Z,82.22
2022-12-15T02:11:20.348Z,82.40
2022-12-15T02:13:57.371Z,82.90
2022-12-15T02:16:47.437Z,83.29
2022-12-15T02:19:45.489Z,83.27
2022-12-15T02:22:14.865Z,83.74
2022-12-15T02:25:03.172Z,83.88
2022-12-15T02:28:08.427Z,84.15
2022-12-15T02:31:17.958Z,84.65
2022-12-15T02:33:50.983Z,84.64
2022-12-15T02:36:33.425Z,85.16
2022-12-15T02:38:59.912Z,85.04
2022-12-15T02:41:46.098Z,85.07
2022-12-15T02:44:37.810Z,85.39
2022-12-15T02:47:27.487Z,85.41
2022-12-15T02:50:22.050Z,85.45
2022-12-15T02:52:57.801Z,85.61
2022-12-15T02:55:55.083Z,86.02
2022-12-15T02:58:37.069Z,85.87
2022-12-15T03:01:29.837Z,85.06
2022-12-15T03:03:58.106Z,85.50
2022-12-15T03:06:25.907Z,85.44
2022-12-15T03:08:52.306Z,85.46
2022-12-15T03:11:18.657Z,85.78
2022-12-15T03:13:45.299Z,85.72
2022-12-15T03:16:12.248Z,85.69
2022-12-15T03:18:38.720Z,85.41
2022-12-15T03:21:05.214Z,85.30
2022-12-15T03:23:31.928Z,85.17
2022-12-15T03:25:58.520Z,84.99
2022-12-15T03:28:25.067Z,85.04
2022-12-15T03:30:51.431Z,84.73
2022-12-15T03:33:19.440Z,84.66
2022-12-15T03:35:45.853Z,84.60
2022-12-15T03:38:12.324Z,84.39
2022-12-15T03:40:38.731Z,84.47
2022-12-15T03:43:05.208Z,84.50
2022-12-15T03:45:31.630Z,84.35
2022-12-15T03:47:58.186Z,84.16
2022-12-15T03:50:27.431Z,84.10
2022-12-15T03:53:04.994Z,84.15
2022-12-15T03:55:31.582Z,83.76
2022-12-15T03:57:59.223Z,83.86
2022-12-15T04:00:25.948Z,84.09
2022-12-15T04:02:52.868Z,83.82
2022-12-15T04:05:37.953Z,83.73
2022-12-15T04:08:04.756Z,83.73
2022-12-15T04:10:34.755Z,83.64
2022-12-15T04:13:04.233Z,83.47
2022-12-15T04:15:30.785Z,83.20
2022-12-15T04:17:58.283Z,83.17
2022-12-15T04:20:24.690Z,83.05
2022-12-15T04:22:51.515Z,83.07
2022-12-15T04:25:40.045Z,82.79
2022-12-15T04:28:27.248Z,82.88
2022-12-15T04:31:30.096Z,82.75
2022-12-15T04:34:19.709Z,82.73
2022-12-15T04:37:07.330Z,82.74
2022-12-15T04:39:58.493Z,82.61
2022-12-15T04:42:44.105Z,82.50
2022-12-15T04:45:30.592Z,82.42
2022-12-15T04:48:15.649Z,82.35
2022-12-15T04:51:00.711Z,82.40
2022-12-15T04:53:45.548Z,82.30
2022-12-15T04:56:32.459Z,82.21
2022-12-15T04:59:18.060Z,82.16
2022-12-15T05:02:03.202Z,81.89
2022-12-15T05:04:48.422Z,81.72
2022-12-15T05:07:34.050Z,81.80
2022-12-15T05:10:19.259Z,81.57
2022-12-15T05:13:04.205Z,81.53
2022-12-15T05:15:51.698Z,81.68
2022-12-15T05:18:36.948Z,81.40
2022-12-15T05:21:21.991Z,81.36
2022-12-15T05:24:07.100Z,81.12
2022-12-15T05:26:53.137Z,81.00
2022-12-15T05:29:39.241Z,80.96
2022-12-15T05:32:06.748Z,81.14
2022-12-15T05:34:35.251Z,80.93
2022-12-15T05:37:04.405Z,81.04
2022-12-15T05:39:30.933Z,81.09
2022-12-15T05:41:57.859Z,80.82
2022-12-15T05:44:25.600Z,80.92
2022-12-15T05:46:52.453Z,80.84
2022-12-15T05:49:19.301Z,80.58
2022-12-15T05:51:47.809Z,80.66
2022-12-15T05:54:19.852Z,80.53
2022-12-15T05:56:47.260Z,80.60
2022-12-15T05:59:17.271Z,80.45
2022-12-15T06:01:43.715Z,80.26
2022-12-15T06:04:12.619Z,80.18
2022-12-15T06:06:40.237Z,80.23
2022-12-15T06:09:07.038Z,80.17
2022-12-15T06:11:33.452Z,80.20
2022-12-15T06:13:59.910Z,80.03
2022-12-15T06:16:30.320Z,79.87
2022-12-15T06:18:59.770Z,79.76
2022-12-15T06:21:36.060Z,79.77
2022-12-15T06:24:04.414Z,79.84
2022-12-15T06:26:35.965Z,79.74
2022-12-15T06:29:04.390Z,79.74
2022-12-15T06:31:32.117Z,79.79
2022-12-15T06:34:02.133Z,79.91
2022-12-15T06:36:30.684Z,79.86
2022-12-15T06:39:02.060Z,79.63
2022-12-15T06:41:31.981Z,79.57
2022-12-15T06:44:00.802Z,79.51
2022-12-15T06:46:29.631Z,79.56
2022-12-15T06:48:56.501Z,79.48
2022-12-15T06:51:23.124Z,79.58
2022-12-15T06:53:50.839Z,79.80
2022-12-15T06:56:33.479Z,79.82
2022-12-15T06:59:01.864Z,79.87
2022-12-15T07:01:29.237Z,79.98
2022-12-15T07:03:56.634Z,79.89
2022-12-15T07:06:23.345Z,80.07
2022-12-15T07:08:52.471Z,80.32
2022-12-15T07:11:20.948Z,80.44
2022-12-15T07:13:51.359Z,80.40
2022-12-15T07:16:18.874Z,80.39
2022-12-15T07:18:45.556Z,80.33
2022-12-15T07:21:12.009Z,80.42
2022-12-15T07:23:56.400Z,80.51
2022-12-15T07:26:24.048Z,80.70
2022-12-15T07:28:50.772Z,80.64
2022-12-15T07:31:17.764Z,80.61
2022-12-15T07:33:44.503Z,80.76
2022-12-15T07:36:11.121Z,80.59
2022-12-15T07:38:38.179Z,80.60
2022-12-15T07:41:06.811Z,80.42
2022-12-15T07:43:33.844Z,80.66
2022-12-15T07:46:00.953Z,80.72
2022-12-15T07:48:27.583Z,80.97
2022-12-15T07:51:02.724Z,81.01
2022-12-15T07:53:35.508Z,80.95
2022-12-15T07:56:09.015Z,80.85
2022-12-15T07:58:35.704Z,80.88
2022-12-15T08:01:05.233Z,80.93
2022-12-15T08:03:32.684Z,80.95
2022-12-15T08:06:04.407Z,80.83
2022-12-15T08:08:32.281Z,80.97
2022-12-15T08:10:59.269Z,81.15
2022-12-15T08:14:00.813Z,81.05
2022-12-15T08:16:12.605Z,81.15
2022-12-15T08:18:39.540Z,81.21
2022-12-15T08:21:08.613Z,81.33
2022-12-15T08:23:35.842Z,81.23
2022-12-15T08:26:04.674Z,81.28
2022-12-15T08:28:32.184Z,81.25
2022-12-15T08:31:06.690Z,81.13
2022-12-15T08:33:33.926Z,81.13
2022-12-15T08:36:02.936Z,81.22
2022-12-15T08:38:30.156Z,80.92
2022-12-15T08:40:57.118Z,80.79
2022-12-15T08:43:24.160Z,80.77
2022-12-15T08:45:50.646Z,80.66
2022-12-15T08:48:17.119Z,80.58
2022-12-15T08:50:47.035Z,80.50
2022-12-15T08:53:30.771Z,80.29
2022-12-15T08:56:09.953Z,80.24
2022-12-15T08:58:36.760Z,80.26
2022-12-15T09:01:20.719Z,80.18
2022-12-15T09:03:50.992Z,80.22
2022-12-15T09:06:20.728Z,80.04
2022-12-15T09:08:50.298Z,79.98
2022-12-15T09:11:17.657Z,79.70
2022-12-15T09:13:44.429Z,79.60
2022-12-15T09:16:15.565Z,79.38
2022-12-15T09:18:46.685Z,79.22
2022-12-15T09:21:14.444Z,79.19
2022-12-15T09:23:41.547Z,78.88
2022-12-15T09:26:15.843Z,78.89
2022-12-15T09:28:43.285Z,78.59
2022-12-15T09:31:15.239Z,78.36
2022-12-15T09:33:42.820Z,78.24
2022-12-15T09:36:13.042Z,77.91
2022-12-15T09:38:41.261Z,77.59
2022-12-15T09:41:09.534Z,77.49
2022-12-15T09:43:47.210Z,77.35
2022-12-15T09:46:23.475Z,77.14
2022-12-15T09:48:52.928Z,77.27
2022-12-15T09:51:20.477Z,77.28
2022-12-15T09:53:55.773Z,77.02
2022-12-15T09:56:50.025Z,76.99
2022-12-15T09:59:30.734Z,77.00
2022-12-15T10:02:21.113Z,76.59
2022-12-15T10:04:53.683Z,76.22
2022-12-15T10:07:31.299Z,76.20
2022-12-15T10:09:57.955Z,76.20
2022-12-15T10:12:30.517Z,75.80
2022-12-15T10:15:22.372Z,75.97
2022-12-15T10:17:52.113Z,76.01
2022-12-15T10:20:20.686Z,76.11
2022-12-15T10:22:50.386Z,76.03
2022-12-15T10:25:30.366Z,75.99
2022-12-15T10:28:15.534Z,75.87
2022-12-15T10:31:29.700Z,76.03
2022-12-15T10:34:11.044Z,75.63
2022-12-15T10:36:37.558Z,75.49
2022-12-15T10:39:04.157Z,75.49
2022-12-15T10:41:33.590Z,75.45
2022-12-15T10:44:00.014Z,75.44
2022-12-15T10:46:28.694Z,75.30
2022-12-15T10:49:19.518Z,75.23
2022-12-15T10:51:58.044Z,74.99
2022-12-15T10:54:30.766Z,74.73
2022-12-15T10:56:59.638Z,74.94
2022-12-15T10:59:32.763Z,74.65
2022-12-15T11:02:23.091Z,74.46
2022-12-15T11:05:00.997Z,74.43
2022-12-15T11:07:34.023Z,74.42
2022-12-15T11:10:02.476Z,74.12
2022-12-15T11:12:50.495Z,73.73
2022-12-15T11:15:23.136Z,72.76
2022-12-15T11:17:59.391Z,72.83
2022-12-15T11:20:35.258Z,72.37
2022-12-15T11:23:22.276Z,71.81
2022-12-15T11:25:58.168Z,70.72
2022-12-15T11:28:41.055Z,69.10
2022-12-15T11:31:36.673Z,68.13
2022-12-15T11:34:04.412Z,67.42
2022-12-15T11:37:01.226Z,66.53
2022-12-15T11:39:48.944Z,65.64
2022-12-15T11:42:53.998Z,64.79
2022-12-15T11:45:30.844Z,63.15
2022-12-15T11:48:02.862Z,62.92
2022-12-15T11:50:38.645Z,61.86
2022-12-15T11:53:13.910Z,61.28
2022-12-15T11:55:52.984Z,59.85
2022-12-15T11:58:48.822Z,59.28
2022-12-15T12:01:34.157Z,57.89
2022-12-15T12:04:23.286Z,56.95
2022-12-15T12:07:08.299Z,56.21
2022-12-15T12:10:02.362Z,55.64
2022-12-15T12:12:50.537Z,54.74
2022-12-15T12:15:31.350Z,53.52
2022-12-15T12:18:11.943Z,52.46
2022-12-15T12:21:01.109Z,52.02
2022-12-15T12:23:34.529Z,50.40
2022-12-15T12:26:22.395Z,50.66
2022-12-15T12:29:02.769Z,49.68
2022-12-15T12:31:41.205Z,48.51
2022-12-15T12:34:22.541Z,49.29
2022-12-15T12:36:50.597Z,48.56
2022-12-15T12:39:22.651Z,47.33
2022-12-15T12:41:52.004Z,45.77
2022-12-15T12:44:34.050Z,43.41
2022-12-15T12:47:15.062Z,41.44
2022-12-15T12:49:58.446Z,41.32
2022-12-15T12:52:32.064Z,39.51
2022-12-15T12:55:26.112Z,37.91
2022-12-15T12:57:53.749Z,38.01
2022-12-15T13:00:21.936Z,38.45
2022-12-15T13:02:54.696Z,39.20
2022-12-15T13:05:30.858Z,39.70
2022-12-15T13:08:06.237Z,38.16
2022-12-15T13:10:36.178Z,38.67
2022-12-15T13:13:08.661Z,38.46
2022-12-15T13:15:37.833Z,37.25
2022-12-15T13:18:20.987Z,37.40
2022-12-15T13:20:50.793Z,36.53
2022-12-15T13:23:23.636Z,36.95
2022-12-15T13:28:45.551Z,36.99
2022-12-15T13:31:21.753Z,36.19
2022-12-15T13:33:51.313Z,36.15
2022-12-15T13:36:36.658Z,36.35
2022-12-15T13:39:15.209Z,36.45
2022-12-15T13:42:32.696Z,36.80
2022-12-15T13:44:57.131Z,37.57
2022-12-15T13:47:28.485Z,38.56
2022-12-15T13:50:02.071Z,38.38
2022-12-15T13:53:16.418Z,38.61
2022-12-15T13:55:28.757Z,39.25
2022-12-15T13:58:23.055Z,38.87
2022-12-15T14:00:58.083Z,38.37
2022-12-15T14:03:25.931Z,38.57
2022-12-15T14:05:58.771Z,37.84
2022-12-15T14:08:28.347Z,37.60
2022-12-15T14:10:57.779Z,37.95
2022-12-15T14:13:25.283Z,37.22
2022-12-15T14:16:07.390Z,37.25
2022-12-15T14:18:36.458Z,37.77
2022-12-15T14:21:20.906Z,37.93
2022-12-15T14:24:19.069Z,37.73
2022-12-15T14:26:33.925Z,38.00
2022-12-15T14:29:02.659Z,38.29
2022-12-15T14:31:30.087Z,38.64
2022-12-15T14:34:06.351Z,39.14
2022-12-15T14:36:33.176Z,39.71
2022-12-15T14:39:03.415Z,40.36
2022-12-15T14:41:33.394Z,41.36
2022-12-15T14:44:32.179Z,42.13
2022-12-15T14:46:50.448Z,43.00
2022-12-15T14:49:29.489Z,43.91
2022-12-15T14:52:03.031Z,45.36
2022-12-15T14:54:35.640Z,47.34
2022-12-15T14:57:09.608Z,49.74
2022-12-15T14:59:42.300Z,51.78
2022-12-15T15:02:08.700Z,53.65
2022-12-15T15:03:13.112Z,36.98
2022-12-15T15:04:35.225Z,55.50
2022-12-15T15:07:04.880Z,57.23
2022-12-15T15:09:42.946Z,58.63
2022-12-15T15:12:15.687Z,59.78
2022-12-15T15:14:46.130Z,60.38
2022-12-15T15:17:12.523Z,61.23
2022-12-15T15:20:00.933Z,61.65
2022-12-15T15:22:36.563Z,62.37
2022-12-15T15:25:27.908Z,62.95
2022-12-15T15:28:19.273Z,63.30
2022-12-15T15:30:56.315Z,63.73
2022-12-15T15:33:24.476Z,64.25
2022-12-15T15:35:56.203Z,64.77
2022-12-15T15:38:32.327Z,65.38
2022-12-15T15:41:02.013Z,65.88
2022-12-15T15:43:29.474Z,66.40
2022-12-15T15:46:01.555Z,67.07
2022-12-15T15:48:36.334Z,67.34
2022-12-15T15:51:05.158Z,67.95
2022-12-15T15:53:33.951Z,68.48
2022-12-15T15:56:02.586Z,68.67
2022-12-15T15:58:29.376Z,68.98
2022-12-15T16:00:56.048Z,69.26
2022-12-15T16:03:22.811Z,69.38
2022-12-15T16:05:49.993Z,69.88
2022-12-15T16:08:24.629Z,70.24
2022-12-15T16:10:51.044Z,70.23
2022-12-15T16:13:25.577Z,70.94
2022-12-15T16:15:53.093Z,71.13
2022-12-15T16:18:19.994Z,71.14
2022-12-15T16:20:50.304Z,71.24
2022-12-15T16:23:19.790Z,71.45
2022-12-15T16:25:58.334Z,71.75
2022-12-15T16:28:28.153Z,72.22
2022-12-15T16:30:55.435Z,72.72
2022-12-15T16:33:22.114Z,73.28
2022-12-15T16:35:49.875Z,73.37
2022-12-15T16:38:22.647Z,73.46
2022-12-15T16:40:49.159Z,73.69
2022-12-15T16:43:19.720Z,74.11
2022-12-15T16:45:48.959Z,74.25
2022-12-15T16:48:16.338Z,74.41
2022-12-15T16:50:52.122Z,74.89
2022-12-15T16:53:23.214Z,75.19
2022-12-15T16:55:58.649Z,75.48
2022-12-15T16:58:27.473Z,76.05
2022-12-15T17:00:54.487Z,76.14
2022-12-15T17:03:31.675Z,76.38
2022-12-15T17:06:01.187Z,76.40
2022-12-15T17:08:49.600Z,76.23
2022-12-15T17:11:22.329Z,76.19
2022-12-15T17:13:53.835Z,76.19
2022-12-15T17:16:22.618Z,76.58
2022-12-15T17:18:50.456Z,76.76
2022-12-15T17:21:21.149Z,77.33
2022-12-15T17:23:52.377Z,77.58
2022-12-15T17:26:29.726Z,78.66
2022-12-15T17:29:00.330Z,78.28
2022-12-15T17:31:31.531Z,78.60
2022-12-15T17:34:02.376Z,78.88
2022-12-15T17:36:28.957Z,79.12
2022-12-15T17:38:58.199Z,79.45
2022-12-15T17:41:57.516Z,79.54
2022-12-15T17:44:38.653Z,79.27
2022-12-15T17:47:08.030Z,79.12
2022-12-15T17:49:37.497Z,79.29
2022-12-15T17:52:34.331Z,79.32
2022-12-15T17:55:03.098Z,80.10
2022-12-15T17:57:31.865Z,79.90
2022-12-15T17:59:59.544Z,79.73
2022-12-15T18:02:26.112Z,79.67
2022-12-15T18:04:53.968Z,79.80
2022-12-15T18:07:23.331Z,79.85
2022-12-15T18:09:52.008Z,79.96
2022-12-15T18:12:21.378Z,79.85
2022-12-15T18:14:48.082Z,79.74
2022-12-15T18:17:15.282Z,79.50
2022-12-15T18:19:41.695Z,79.78
2022-12-15T18:22:23.417Z,79.92
2022-12-15T18:24:51.629Z,80.15
2022-12-15T18:27:21.995Z,80.48
2022-12-15T18:29:48.434Z,80.51
2022-12-15T18:32:18.840Z,80.24
2022-12-15T18:34:46.562Z,80.29
2022-12-15T18:37:17.969Z,80.26
2022-12-15T18:39:45.155Z,80.38
2022-12-15T18:42:18.251Z,80.50
2022-12-15T18:44:47.778Z,80.36
2022-12-15T18:47:20.498Z,80.33
2022-12-15T18:49:47.438Z,80.19
2022-12-15T18:52:19.881Z,80.39
2022-12-15T18:54:48.034Z,80.32
2022-12-15T18:57:37.793Z,80.20
2022-12-15T19:00:13.330Z,79.93
2022-12-15T19:02:40.923Z,79.85
2022-12-15T19:05:25.548Z,79.95
2022-12-15T19:07:51.999Z,80.05
2022-12-15T19:10:18.461Z,80.22
2022-12-15T19:12:44.847Z,80.45
2022-12-15T19:15:17.862Z,80.41
2022-12-15T19:18:03.033Z,80.01
2022-12-15T19:20:48.120Z,80.24
2022-12-15T19:23:15.724Z,80.22
2022-12-15T19:25:44.108Z,80.31
2022-12-15T19:28:15.543Z,80.26
2022-12-15T19:30:43.525Z,80.28
2022-12-15T19:33:11.533Z,79.99
2022-12-15T19:35:40.147Z,79.75
2022-12-15T19:38:07.681Z,80.00
2022-12-15T19:40:36.515Z,80.38
2022-12-15T19:43:04.272Z,80.89
2022-12-15T19:45:32.661Z,81.37
2022-12-15T19:47:59.862Z,81.40
2022-12-15T19:50:31.532Z,82.09
2022-12-15T19:53:00.882Z,82.04
2022-12-15T19:55:33.289Z,82.24
2022-12-15T19:58:00.874Z,82.20
2022-12-15T20:00:27.451Z,82.12
2022-12-15T20:02:55.263Z,81.90
2022-12-15T20:05:23.262Z,81.74
2022-12-15T20:07:53.835Z,81.70
2022-12-15T20:10:31.703Z,81.77
2022-12-15T20:13:00.179Z,82.29
2022-12-15T20:15:26.690Z,82.36
2022-12-15T20:17:57.282Z,81.96
2022-12-15T20:20:27.023Z,81.84
2022-12-15T20:22:57.147Z,81.84
2022-12-15T20:25:27.030Z,82.10
2022-12-15T20:27:53.573Z,82.09
2022-12-15T20:30:22.585Z,82.33
2022-12-15T20:32:49.341Z,82.15
2022-12-15T20:35:17.737Z,82.22
2022-12-15T20:37:45.089Z,82.09
2022-12-15T20:40:22.853Z,82.07
2022-12-15T20:42:51.410Z,82.41
2022-12-15T20:45:21.295Z,82.62
2022-12-15T20:47:49.798Z,82.73
2022-12-15T20:50:37.499Z,82.61
2022-12-15T20:53:06.273Z,82.37
2022-12-15T20:55:32.974Z,82.25
2022-12-15T20:57:59.362Z,82.40
2022-12-15T21:00:25.738Z,82.33
2022-12-15T21:02:52.457Z,82.18
2022-12-15T21:05:24.748Z,82.17
2022-12-15T21:07:52.008Z,81.75
2022-12-15T21:10:20.441Z,81.69
2022-12-15T21:12:48.890Z,81.42
2022-12-15T21:15:21.561Z,81.67
2022-12-15T21:18:08.869Z,81.68
2022-12-15T21:20:41.100Z,81.66
2022-12-15T21:23:27.385Z,81.63
2022-12-15T21:25:55.224Z,81.81
2022-12-15T21:28:22.770Z,81.87
2022-12-15T21:30:50.092Z,81.90
2022-12-15T21:33:17.468Z,82.03
2022-12-15T21:35:48.223Z,82.15
2022-12-15T21:38:37.046Z,81.81
2022-12-15T21:41:06.157Z,81.72
2022-12-15T21:43:35.642Z,81.74
2022-12-15T21:46:12.112Z,81.95
2022-12-15T21:48:57.244Z,81.91
2022-12-15T21:51:24.393Z,81.79
2022-12-15T21:53:51.236Z,82.05
2022-12-15T21:56:19.557Z,81.92
2022-12-15T21:58:49.014Z,81.99
2022-12-15T22:01:18.829Z,81.92
2022-12-15T22:03:52.884Z,81.88
2022-12-15T22:06:23.802Z,81.73
2022-12-15T22:08:52.423Z,82.05
2022-12-15T22:11:23.057Z,82.34
2022-12-15T22:13:55.134Z,82.39
2022-12-15T22:16:21.888Z,82.19
2022-12-15T22:18:57.143Z,82.29
2022-12-15T22:21:25.166Z,82.24
2022-12-15T22:23:51.957Z,82.29
2022-12-15T22:26:28.814Z,82.48
2022-12-15T22:28:57.069Z,82.23
2022-12-15T22:31:23.561Z,82.31
2022-12-15T22:33:49.986Z,82.61
2022-12-15T22:36:16.368Z,82.64
2022-12-15T22:38:44.959Z,82.76
2022-12-15T22:41:18.661Z,83.02
2022-12-15T22:43:49.780Z,83.11
2022-12-15T22:46:16.311Z,82.46
2022-12-15T22:48:47.491Z,82.34
2022-12-15T22:51:16.324Z,82.84
2022-12-15T22:53:42.784Z,83.06
2022-12-15T22:56:23.315Z,83.43
2022-12-15T22:58:55.190Z,83.53
2022-12-15T23:01:21.811Z,83.53
2022-12-15T23:03:48.364Z,83.50
2022-12-15T23:06:14.887Z,83.57
2022-12-15T23:08:41.448Z,83.79
2022-12-15T23:11:26.525Z,83.95
2022-12-15T23:13:52.950Z,83.95
2022-12-15T23:16:21.774Z,83.43
2022-12-15T23:18:51.703Z,83.62
2022-12-15T23:21:19.301Z,83.89
2022-12-15T23:23:45.918Z,83.67
2022-12-15T23:26:13.130Z,83.70
2022-12-15T23:28:39.896Z,83.45
2022-12-15T23:31:07.236Z,83.47
2022-12-15T23:33:34.626Z,83.53
2022-12-15T23:36:02.180Z,83.56
2022-12-15T23:38:29.375Z,83.26
2022-12-15T23:40:56.684Z,83.39
2022-12-15T23:43:24.558Z,83.13
2022-12-15T23:46:03.151Z,83.04
2022-12-15T23:48:34.930Z,82.90
2022-12-15T23:51:16.212Z,82.98
2022-12-15T23:53:44.087Z,83.01
2022-12-15T23:56:19.743Z,82.92
2022-12-15T23:58:48.966Z,83.09
